sensor_id;sensor_type;location;lat;lon;timestamp;P1;durP1;ratioP1;P2;durP2;ratioP2
34134;SDS011;20410;55.578;12.968;2023-06-22T00:02:15;8.00;;;5.10;;
34134;SDS011;20410;55.578;12.968;2023-06-22T00:04:41;8.45;;;5.30;;
34134;SDS011;20410;55.578;12.968;2023-06-22T00:07:06;8.63;;;5.43;;
34134;SDS011;20410;55.578;12.968;2023-06-22T00:09:32;8.27;;;5.32;;
34134;SDS011;20410;55.578;12.968;2023-06-22T00:11:58;8.55;;;5.18;;
34134;SDS011;20410;55.578;12.968;2023-06-22T00:14:23;6.70;;;4.88;;
34134;SDS011;20410;55.578;12.968;2023-06-22T00:16:49;8.07;;;5.60;;
34134;SDS011;20410;55.578;12.968;2023-06-22T00:19:18;10.05;;;5.25;;
34134;SDS011;20410;55.578;12.968;2023-06-22T00:21:44;8.75;;;5.35;;
34134;SDS011;20410;55.578;12.968;2023-06-22T00:24:12;8.63;;;5.63;;
34134;SDS011;20410;55.578;12.968;2023-06-22T00:26:38;8.95;;;5.32;;
34134;SDS011;20410;55.578;12.968;2023-06-22T00:29:04;7.55;;;5.47;;
34134;SDS011;20410;55.578;12.968;2023-06-22T00:31:29;6.68;;;5.45;;
34134;SDS011;20410;55.578;12.968;2023-06-22T00:33:55;8.65;;;5.60;;
34134;SDS011;20410;55.578;12.968;2023-06-22T00:36:20;7.20;;;5.50;;
34134;SDS011;20410;55.578;12.968;2023-06-22T00:38:46;8.80;;;5.57;;
34134;SDS011;20410;55.578;12.968;2023-06-22T00:41:12;8.10;;;5.70;;
34134;SDS011;20410;55.578;12.968;2023-06-22T00:43:38;9.00;;;5.95;;
34134;SDS011;20410;55.578;12.968;2023-06-22T00:46:03;8.95;;;5.43;;
34134;SDS011;20410;55.578;12.968;2023-06-22T00:48:29;9.40;;;6.00;;
34134;SDS011;20410;55.578;12.968;2023-06-22T00:50:55;9.73;;;6.28;;
34134;SDS011;20410;55.578;12.968;2023-06-22T00:53:21;9.73;;;6.32;;
34134;SDS011;20410;55.578;12.968;2023-06-22T00:55:46;8.38;;;5.97;;
34134;SDS011;20410;55.578;12.968;2023-06-22T00:58:16;10.25;;;6.65;;
34134;SDS011;20410;55.578;12.968;2023-06-22T01:00:42;9.07;;;6.05;;
34134;SDS011;20410;55.578;12.968;2023-06-22T01:03:07;9.65;;;6.57;;
34134;SDS011;20410;55.578;12.968;2023-06-22T01:05:34;8.43;;;6.20;;
34134;SDS011;20410;55.578;12.968;2023-06-22T01:10:50;9.30;;;6.53;;
34134;SDS011;20410;55.578;12.968;2023-06-22T01:16:31;8.27;;;6.43;;
34134;SDS011;20410;55.578;12.968;2023-06-22T01:19:26;7.68;;;6.70;;
34134;SDS011;20410;55.578;12.968;2023-06-22T01:21:51;9.40;;;6.28;;
34134;SDS011;20410;55.578;12.968;2023-06-22T01:29:27;9.45;;;6.68;;
34134;SDS011;20410;55.578;12.968;2023-06-22T01:31:55;9.23;;;6.97;;
34134;SDS011;20410;55.578;12.968;2023-06-22T01:34:22;9.65;;;7.20;;
34134;SDS011;20410;55.578;12.968;2023-06-22T01:36:49;12.15;;;6.88;;
34134;SDS011;20410;55.578;12.968;2023-06-22T01:39:16;8.90;;;6.30;;
34134;SDS011;20410;55.578;12.968;2023-06-22T01:41:43;10.57;;;7.15;;
34134;SDS011;20410;55.578;12.968;2023-06-22T01:44:09;11.80;;;7.15;;
34134;SDS011;20410;55.578;12.968;2023-06-22T01:46:36;13.27;;;7.00;;
34134;SDS011;20410;55.578;12.968;2023-06-22T01:49:03;9.38;;;7.20;;
34134;SDS011;20410;55.578;12.968;2023-06-22T01:51:30;9.00;;;7.15;;
34134;SDS011;20410;55.578;12.968;2023-06-22T01:53:56;8.45;;;6.30;;
34134;SDS011;20410;55.578;12.968;2023-06-22T01:56:21;10.02;;;6.70;;
34134;SDS011;20410;55.578;12.968;2023-06-22T01:58:52;11.18;;;6.82;;
34134;SDS011;20410;55.578;12.968;2023-06-22T02:01:35;10.00;;;6.57;;
34134;SDS011;20410;55.578;12.968;2023-06-22T02:04:06;11.10;;;7.05;;
34134;SDS011;20410;55.578;12.968;2023-06-22T02:06:47;10.85;;;7.25;;
34134;SDS011;20410;55.578;12.968;2023-06-22T02:09:18;10.70;;;7.07;;
34134;SDS011;20410;55.578;12.968;2023-06-22T02:11:46;10.40;;;6.90;;
34134;SDS011;20410;55.578;12.968;2023-06-22T02:14:13;9.27;;;6.70;;
34134;SDS011;20410;55.578;12.968;2023-06-22T02:16:40;14.30;;;7.75;;
34134;SDS011;20410;55.578;12.968;2023-06-22T02:19:06;10.38;;;7.22;;
34134;SDS011;20410;55.578;12.968;2023-06-22T02:21:33;11.20;;;6.63;;
34134;SDS011;20410;55.578;12.968;2023-06-22T02:23:59;8.57;;;6.60;;
34134;SDS011;20410;55.578;12.968;2023-06-22T02:26:25;8.57;;;6.72;;
34134;SDS011;20410;55.578;12.968;2023-06-22T02:28:51;9.35;;;6.85;;
34134;SDS011;20410;55.578;12.968;2023-06-22T02:31:17;10.40;;;7.20;;
34134;SDS011;20410;55.578;12.968;2023-06-22T02:33:43;12.02;;;7.30;;
34134;SDS011;20410;55.578;12.968;2023-06-22T02:36:09;10.82;;;7.30;;
34134;SDS011;20410;55.578;12.968;2023-06-22T02:38:38;10.00;;;7.15;;
34134;SDS011;20410;55.578;12.968;2023-06-22T02:41:13;11.23;;;7.45;;
34134;SDS011;20410;55.578;12.968;2023-06-22T02:43:43;11.35;;;7.40;;
34134;SDS011;20410;55.578;12.968;2023-06-22T02:46:10;12.27;;;7.22;;
34134;SDS011;20410;55.578;12.968;2023-06-22T02:48:35;12.93;;;7.43;;
34134;SDS011;20410;55.578;12.968;2023-06-22T02:51:01;12.05;;;7.30;;
34134;SDS011;20410;55.578;12.968;2023-06-22T02:53:27;9.52;;;6.65;;
34134;SDS011;20410;55.578;12.968;2023-06-22T02:55:52;8.43;;;6.38;;
34134;SDS011;20410;55.578;12.968;2023-06-22T02:58:18;11.65;;;6.95;;
34134;SDS011;20410;55.578;12.968;2023-06-22T03:00:43;10.80;;;6.70;;
34134;SDS011;20410;55.578;12.968;2023-06-22T03:03:09;9.43;;;6.93;;
34134;SDS011;20410;55.578;12.968;2023-06-22T03:05:34;9.35;;;7.07;;
34134;SDS011;20410;55.578;12.968;2023-06-22T03:08:00;11.82;;;6.80;;
34134;SDS011;20410;55.578;12.968;2023-06-22T03:10:26;8.55;;;6.82;;
34134;SDS011;20410;55.578;12.968;2023-06-22T03:12:51;11.80;;;7.47;;
34134;SDS011;20410;55.578;12.968;2023-06-22T03:15:17;9.07;;;6.95;;
34134;SDS011;20410;55.578;12.968;2023-06-22T03:17:43;8.48;;;6.70;;
34134;SDS011;20410;55.578;12.968;2023-06-22T03:20:09;9.43;;;6.55;;
34134;SDS011;20410;55.578;12.968;2023-06-22T03:22:37;11.93;;;6.40;;
34134;SDS011;20410;55.578;12.968;2023-06-22T03:25:07;8.90;;;6.63;;
34134;SDS011;20410;55.578;12.968;2023-06-22T03:27:36;9.80;;;6.03;;
34134;SDS011;20410;55.578;12.968;2023-06-22T03:30:02;9.88;;;6.50;;
34134;SDS011;20410;55.578;12.968;2023-06-22T03:32:28;8.57;;;5.75;;
34134;SDS011;20410;55.578;12.968;2023-06-22T03:34:53;12.93;;;6.43;;
34134;SDS011;20410;55.578;12.968;2023-06-22T03:37:19;8.35;;;5.90;;
34134;SDS011;20410;55.578;12.968;2023-06-22T03:39:44;7.78;;;6.03;;
34134;SDS011;20410;55.578;12.968;2023-06-22T03:42:10;9.50;;;6.60;;
34134;SDS011;20410;55.578;12.968;2023-06-22T03:44:36;10.82;;;6.60;;
34134;SDS011;20410;55.578;12.968;2023-06-22T03:47:05;9.43;;;6.72;;
34134;SDS011;20410;55.578;12.968;2023-06-22T03:49:32;10.23;;;6.47;;
34134;SDS011;20410;55.578;12.968;2023-06-22T03:51:59;11.63;;;6.20;;
34134;SDS011;20410;55.578;12.968;2023-06-22T03:54:26;9.93;;;6.43;;
34134;SDS011;20410;55.578;12.968;2023-06-22T03:56:53;9.30;;;5.85;;
34134;SDS011;20410;55.578;12.968;2023-06-22T03:59:18;11.13;;;6.63;;
34134;SDS011;20410;55.578;12.968;2023-06-22T04:01:44;9.05;;;6.40;;
34134;SDS011;20410;55.578;12.968;2023-06-22T04:04:10;11.57;;;6.43;;
34134;SDS011;20410;55.578;12.968;2023-06-22T04:06:35;7.93;;;6.50;;
34134;SDS011;20410;55.578;12.968;2023-06-22T04:09:01;12.50;;;7.03;;
34134;SDS011;20410;55.578;12.968;2023-06-22T04:11:27;10.55;;;6.50;;
34134;SDS011;20410;55.578;12.968;2023-06-22T04:13:53;10.07;;;6.20;;
34134;SDS011;20410;55.578;12.968;2023-06-22T04:16:18;9.52;;;6.18;;
34134;SDS011;20410;55.578;12.968;2023-06-22T04:18:44;8.45;;;6.00;;
34134;SDS011;20410;55.578;12.968;2023-06-22T04:21:10;10.93;;;6.78;;
34134;SDS011;20410;55.578;12.968;2023-06-22T04:23:35;9.73;;;5.90;;
34134;SDS011;20410;55.578;12.968;2023-06-22T04:26:01;9.18;;;6.60;;
34134;SDS011;20410;55.578;12.968;2023-06-22T04:28:27;10.55;;;6.40;;
34134;SDS011;20410;55.578;12.968;2023-06-22T04:30:52;7.55;;;6.15;;
34134;SDS011;20410;55.578;12.968;2023-06-22T04:33:23;11.73;;;6.45;;
34134;SDS011;20410;55.578;12.968;2023-06-22T04:35:48;11.00;;;6.82;;
34134;SDS011;20410;55.578;12.968;2023-06-22T04:38:14;8.65;;;6.05;;
34134;SDS011;20410;55.578;12.968;2023-06-22T04:40:40;9.63;;;7.22;;
34134;SDS011;20410;55.578;12.968;2023-06-22T04:43:05;8.40;;;6.30;;
34134;SDS011;20410;55.578;12.968;2023-06-22T04:45:31;10.70;;;6.70;;
34134;SDS011;20410;55.578;12.968;2023-06-22T04:47:58;11.20;;;6.43;;
34134;SDS011;20410;55.578;12.968;2023-06-22T04:50:23;8.98;;;6.22;;
34134;SDS011;20410;55.578;12.968;2023-06-22T04:52:49;9.85;;;6.63;;
34134;SDS011;20410;55.578;12.968;2023-06-22T04:55:15;10.45;;;6.68;;
34134;SDS011;20410;55.578;12.968;2023-06-22T04:57:43;9.55;;;5.78;;
34134;SDS011;20410;55.578;12.968;2023-06-22T05:00:14;10.38;;;6.45;;
34134;SDS011;20410;55.578;12.968;2023-06-22T05:02:45;9.63;;;6.60;;
34134;SDS011;20410;55.578;12.968;2023-06-22T05:05:11;9.63;;;5.68;;
34134;SDS011;20410;55.578;12.968;2023-06-22T05:07:57;12.02;;;5.82;;
34134;SDS011;20410;55.578;12.968;2023-06-22T05:10:25;10.18;;;5.65;;
34134;SDS011;20410;55.578;12.968;2023-06-22T05:12:51;9.10;;;5.80;;
34134;SDS011;20410;55.578;12.968;2023-06-22T05:15:17;10.57;;;6.03;;
34134;SDS011;20410;55.578;12.968;2023-06-22T05:17:44;7.78;;;5.60;;
34134;SDS011;20410;55.578;12.968;2023-06-22T05:20:10;8.48;;;5.10;;
34134;SDS011;20410;55.578;12.968;2023-06-22T05:22:37;12.38;;;5.97;;
34134;SDS011;20410;55.578;12.968;2023-06-22T05:25:05;10.43;;;5.38;;
34134;SDS011;20410;55.578;12.968;2023-06-22T05:27:33;11.07;;;5.60;;
34134;SDS011;20410;55.578;12.968;2023-06-22T05:29:58;8.18;;;4.57;;
34134;SDS011;20410;55.578;12.968;2023-06-22T05:32:24;8.85;;;5.30;;
34134;SDS011;20410;55.578;12.968;2023-06-22T05:34:49;10.30;;;5.35;;
34134;SDS011;20410;55.578;12.968;2023-06-22T05:37:15;9.65;;;5.63;;
34134;SDS011;20410;55.578;12.968;2023-06-22T05:39:41;9.98;;;5.22;;
34134;SDS011;20410;55.578;12.968;2023-06-22T05:42:07;10.48;;;5.32;;
34134;SDS011;20410;55.578;12.968;2023-06-22T05:44:33;7.93;;;5.40;;
34134;SDS011;20410;55.578;12.968;2023-06-22T05:46:59;8.90;;;4.72;;
34134;SDS011;20410;55.578;12.968;2023-06-22T05:49:25;11.75;;;5.32;;
34134;SDS011;20410;55.578;12.968;2023-06-22T05:51:57;10.65;;;5.53;;
34134;SDS011;20410;55.578;12.968;2023-06-22T05:54:23;7.95;;;5.18;;
34134;SDS011;20410;55.578;12.968;2023-06-22T05:56:48;13.80;;;5.80;;
34134;SDS011;20410;55.578;12.968;2023-06-22T05:59:14;9.13;;;4.90;;
34134;SDS011;20410;55.578;12.968;2023-06-22T06:01:40;8.80;;;5.20;;
34134;SDS011;20410;55.578;12.968;2023-06-22T06:04:05;11.27;;;5.03;;
34134;SDS011;20410;55.578;12.968;2023-06-22T06:06:34;9.05;;;4.85;;
34134;SDS011;20410;55.578;12.968;2023-06-22T06:09:03;9.90;;;5.90;;
34134;SDS011;20410;55.578;12.968;2023-06-22T06:11:29;12.70;;;5.30;;
34134;SDS011;20410;55.578;12.968;2023-06-22T06:13:55;8.70;;;4.65;;
34134;SDS011;20410;55.578;12.968;2023-06-22T06:16:21;7.18;;;5.03;;
34134;SDS011;20410;55.578;12.968;2023-06-22T06:18:47;11.85;;;5.43;;
34134;SDS011;20410;55.578;12.968;2023-06-22T06:21:14;10.45;;;4.72;;
34134;SDS011;20410;55.578;12.968;2023-06-22T06:23:40;8.85;;;5.05;;
34134;SDS011;20410;55.578;12.968;2023-06-22T06:26:07;7.60;;;4.97;;
34134;SDS011;20410;55.578;12.968;2023-06-22T06:28:32;5.80;;;4.80;;
34134;SDS011;20410;55.578;12.968;2023-06-22T06:30:58;8.55;;;5.07;;
34134;SDS011;20410;55.578;12.968;2023-06-22T06:33:24;7.82;;;5.10;;
34134;SDS011;20410;55.578;12.968;2023-06-22T06:35:50;9.05;;;4.93;;
34134;SDS011;20410;55.578;12.968;2023-06-22T06:38:16;9.38;;;5.15;;
34134;SDS011;20410;55.578;12.968;2023-06-22T06:40:41;7.22;;;5.03;;
34134;SDS011;20410;55.578;12.968;2023-06-22T06:43:07;11.55;;;5.80;;
34134;SDS011;20410;55.578;12.968;2023-06-22T06:45:32;11.88;;;5.20;;
34134;SDS011;20410;55.578;12.968;2023-06-22T06:47:59;8.27;;;4.93;;
34134;SDS011;20410;55.578;12.968;2023-06-22T06:50:25;8.48;;;5.50;;
34134;SDS011;20410;55.578;12.968;2023-06-22T06:52:52;9.07;;;4.97;;
34134;SDS011;20410;55.578;12.968;2023-06-22T06:55:18;7.20;;;5.22;;
34134;SDS011;20410;55.578;12.968;2023-06-22T06:57:45;11.45;;;5.30;;
34134;SDS011;20410;55.578;12.968;2023-06-22T07:00:13;7.18;;;5.28;;
34134;SDS011;20410;55.578;12.968;2023-06-22T07:02:41;8.52;;;5.28;;
34134;SDS011;20410;55.578;12.968;2023-06-22T07:05:11;9.23;;;5.03;;
34134;SDS011;20410;55.578;12.968;2023-06-22T07:07:37;7.03;;;4.82;;
34134;SDS011;20410;55.578;12.968;2023-06-22T07:10:04;8.77;;;5.15;;
34134;SDS011;20410;55.578;12.968;2023-06-22T07:12:30;10.50;;;4.70;;
34134;SDS011;20410;55.578;12.968;2023-06-22T07:15:05;10.82;;;4.90;;
34134;SDS011;20410;55.578;12.968;2023-06-22T07:17:35;8.95;;;4.85;;
34134;SDS011;20410;55.578;12.968;2023-06-22T07:20:01;7.82;;;4.65;;
34134;SDS011;20410;55.578;12.968;2023-06-22T07:22:32;8.73;;;5.30;;
34134;SDS011;20410;55.578;12.968;2023-06-22T07:24:58;7.18;;;4.93;;
34134;SDS011;20410;55.578;12.968;2023-06-22T07:27:23;11.07;;;5.75;;
34134;SDS011;20410;55.578;12.968;2023-06-22T07:29:49;8.65;;;4.75;;
34134;SDS011;20410;55.578;12.968;2023-06-22T07:32:15;7.20;;;4.95;;
34134;SDS011;20410;55.578;12.968;2023-06-22T07:34:41;9.00;;;4.50;;
34134;SDS011;20410;55.578;12.968;2023-06-22T07:37:06;8.77;;;4.70;;
34134;SDS011;20410;55.578;12.968;2023-06-22T07:39:32;8.85;;;4.90;;
34134;SDS011;20410;55.578;12.968;2023-06-22T07:41:57;8.65;;;4.80;;
34134;SDS011;20410;55.578;12.968;2023-06-22T07:44:23;6.95;;;4.38;;
34134;SDS011;20410;55.578;12.968;2023-06-22T07:46:49;7.45;;;4.72;;
34134;SDS011;20410;55.578;12.968;2023-06-22T07:49:14;6.95;;;4.20;;
34134;SDS011;20410;55.578;12.968;2023-06-22T07:51:41;6.25;;;4.55;;
34134;SDS011;20410;55.578;12.968;2023-06-22T07:54:06;8.60;;;4.90;;
34134;SDS011;20410;55.578;12.968;2023-06-22T07:56:33;8.13;;;4.80;;
34134;SDS011;20410;55.578;12.968;2023-06-22T07:58:59;5.90;;;4.50;;
34134;SDS011;20410;55.578;12.968;2023-06-22T08:01:26;9.15;;;4.90;;
34134;SDS011;20410;55.578;12.968;2023-06-22T08:03:52;8.10;;;5.28;;
34134;SDS011;20410;55.578;12.968;2023-06-22T08:06:17;7.40;;;4.32;;
34134;SDS011;20410;55.578;12.968;2023-06-22T08:08:43;7.20;;;4.82;;
34134;SDS011;20410;55.578;12.968;2023-06-22T08:11:12;5.45;;;4.15;;
34134;SDS011;20410;55.578;12.968;2023-06-22T08:13:38;9.45;;;4.70;;
34134;SDS011;20410;55.578;12.968;2023-06-22T08:16:04;9.63;;;5.00;;
34134;SDS011;20410;55.578;12.968;2023-06-22T08:18:30;8.10;;;4.85;;
34134;SDS011;20410;55.578;12.968;2023-06-22T08:20:55;6.57;;;4.47;;
34134;SDS011;20410;55.578;12.968;2023-06-22T08:23:21;8.32;;;4.88;;
34134;SDS011;20410;55.578;12.968;2023-06-22T08:25:47;7.05;;;4.68;;
34134;SDS011;20410;55.578;12.968;2023-06-22T08:28:13;9.10;;;4.93;;
34134;SDS011;20410;55.578;12.968;2023-06-22T08:30:38;8.65;;;4.43;;
34134;SDS011;20410;55.578;12.968;2023-06-22T08:33:04;6.63;;;4.63;;
34134;SDS011;20410;55.578;12.968;2023-06-22T08:35:30;8.55;;;4.50;;
34134;SDS011;20410;55.578;12.968;2023-06-22T08:37:55;6.18;;;4.32;;
34134;SDS011;20410;55.578;12.968;2023-06-22T08:40:21;6.07;;;4.38;;
34134;SDS011;20410;55.578;12.968;2023-06-22T08:42:48;5.50;;;4.30;;
34134;SDS011;20410;55.578;12.968;2023-06-22T08:45:14;7.00;;;4.72;;
34134;SDS011;20410;55.578;12.968;2023-06-22T08:47:40;9.73;;;4.75;;
34134;SDS011;20410;55.578;12.968;2023-06-22T08:50:07;5.57;;;4.40;;
34134;SDS011;20410;55.578;12.968;2023-06-22T08:52:34;7.18;;;4.70;;
34134;SDS011;20410;55.578;12.968;2023-06-22T08:55:00;11.63;;;5.18;;
34134;SDS011;20410;55.578;12.968;2023-06-22T08:57:26;9.85;;;4.30;;
34134;SDS011;20410;55.578;12.968;2023-06-22T08:59:52;6.43;;;4.43;;
34134;SDS011;20410;55.578;12.968;2023-06-22T09:02:18;7.40;;;4.50;;
34134;SDS011;20410;55.578;12.968;2023-06-22T09:04:45;8.90;;;4.57;;
34134;SDS011;20410;55.578;12.968;2023-06-22T09:07:11;4.53;;;3.90;;
34134;SDS011;20410;55.578;12.968;2023-06-22T09:09:37;7.43;;;4.47;;
34134;SDS011;20410;55.578;12.968;2023-06-22T09:12:03;7.63;;;4.35;;
34134;SDS011;20410;55.578;12.968;2023-06-22T09:14:29;6.40;;;4.32;;
34134;SDS011;20410;55.578;12.968;2023-06-22T09:16:54;7.20;;;4.80;;
34134;SDS011;20410;55.578;12.968;2023-06-22T09:19:20;9.63;;;4.43;;
34134;SDS011;20410;55.578;12.968;2023-06-22T09:21:46;6.38;;;3.85;;
34134;SDS011;20410;55.578;12.968;2023-06-22T09:24:11;8.68;;;4.10;;
34134;SDS011;20410;55.578;12.968;2023-06-22T09:26:37;5.18;;;3.72;;
34134;SDS011;20410;55.578;12.968;2023-06-22T09:29:04;5.18;;;3.58;;
34134;SDS011;20410;55.578;12.968;2023-06-22T09:31:30;5.45;;;3.67;;
34134;SDS011;20410;55.578;12.968;2023-06-22T09:33:56;6.38;;;3.80;;
34134;SDS011;20410;55.578;12.968;2023-06-22T09:36:22;5.82;;;3.47;;
34134;SDS011;20410;55.578;12.968;2023-06-22T09:38:48;5.22;;;3.55;;
34134;SDS011;20410;55.578;12.968;2023-06-22T09:41:21;8.75;;;3.90;;
34134;SDS011;20410;55.578;12.968;2023-06-22T09:43:47;5.47;;;3.70;;
34134;SDS011;20410;55.578;12.968;2023-06-22T09:46:16;8.23;;;4.00;;
34134;SDS011;20410;55.578;12.968;2023-06-22T09:48:42;6.43;;;3.85;;
34134;SDS011;20410;55.578;12.968;2023-06-22T09:51:07;8.00;;;3.70;;
34134;SDS011;20410;55.578;12.968;2023-06-22T09:53:33;5.68;;;3.55;;
34134;SDS011;20410;55.578;12.968;2023-06-22T09:55:59;5.68;;;3.90;;
34134;SDS011;20410;55.578;12.968;2023-06-22T09:58:26;5.40;;;3.92;;
34134;SDS011;20410;55.578;12.968;2023-06-22T10:00:52;4.18;;;3.63;;
34134;SDS011;20410;55.578;12.968;2023-06-22T10:03:19;4.50;;;3.78;;
34134;SDS011;20410;55.578;12.968;2023-06-22T10:05:45;4.90;;;3.38;;
34134;SDS011;20410;55.578;12.968;2023-06-22T10:08:11;5.30;;;3.70;;
34134;SDS011;20410;55.578;12.968;2023-06-22T10:10:36;4.75;;;3.17;;
34134;SDS011;20410;55.578;12.968;2023-06-22T10:13:04;5.85;;;3.50;;
34134;SDS011;20410;55.578;12.968;2023-06-22T10:15:36;12.27;;;4.25;;
34134;SDS011;20410;55.578;12.968;2023-06-22T10:18:02;4.28;;;3.10;;
34134;SDS011;20410;55.578;12.968;2023-06-22T10:20:27;3.47;;;3.15;;
34134;SDS011;20410;55.578;12.968;2023-06-22T10:22:53;6.00;;;3.72;;
34134;SDS011;20410;55.578;12.968;2023-06-22T10:25:19;4.45;;;3.15;;
34134;SDS011;20410;55.578;12.968;2023-06-22T10:27:45;4.63;;;3.30;;
34134;SDS011;20410;55.578;12.968;2023-06-22T10:30:11;5.97;;;3.38;;
34134;SDS011;20410;55.578;12.968;2023-06-22T10:32:37;4.68;;;3.53;;
34134;SDS011;20410;55.578;12.968;2023-06-22T10:35:04;5.00;;;3.47;;
34134;SDS011;20410;55.578;12.968;2023-06-22T10:37:30;4.63;;;3.10;;
34134;SDS011;20410;55.578;12.968;2023-06-22T10:39:55;6.57;;;3.35;;
34134;SDS011;20410;55.578;12.968;2023-06-22T10:42:21;4.78;;;3.03;;
34134;SDS011;20410;55.578;12.968;2023-06-22T10:44:47;5.15;;;3.47;;
34134;SDS011;20410;55.578;12.968;2023-06-22T10:47:12;4.57;;;3.25;;
34134;SDS011;20410;55.578;12.968;2023-06-22T10:49:38;6.07;;;3.40;;
34134;SDS011;20410;55.578;12.968;2023-06-22T10:52:08;6.78;;;3.38;;
34134;SDS011;20410;55.578;12.968;2023-06-22T10:54:37;4.38;;;3.03;;
34134;SDS011;20410;55.578;12.968;2023-06-22T10:57:03;4.95;;;3.40;;
34134;SDS011;20410;55.578;12.968;2023-06-22T10:59:29;4.10;;;3.25;;
34134;SDS011;20410;55.578;12.968;2023-06-22T11:01:55;4.25;;;3.05;;
34134;SDS011;20410;55.578;12.968;2023-06-22T11:04:22;4.72;;;3.15;;
34134;SDS011;20410;55.578;12.968;2023-06-22T11:06:48;4.75;;;3.30;;
34134;SDS011;20410;55.578;12.968;2023-06-22T11:09:14;5.00;;;3.20;;
34134;SDS011;20410;55.578;12.968;2023-06-22T11:11:49;6.20;;;3.08;;
34134;SDS011;20410;55.578;12.968;2023-06-22T11:14:20;3.63;;;2.90;;
34134;SDS011;20410;55.578;12.968;2023-06-22T11:16:46;6.10;;;3.13;;
34134;SDS011;20410;55.578;12.968;2023-06-22T11:19:12;5.05;;;3.25;;
34134;SDS011;20410;55.578;12.968;2023-06-22T11:21:37;4.90;;;3.10;;
34134;SDS011;20410;55.578;12.968;2023-06-22T11:24:03;4.72;;;3.15;;
34134;SDS011;20410;55.578;12.968;2023-06-22T11:26:29;3.33;;;2.83;;
34134;SDS011;20410;55.578;12.968;2023-06-22T11:28:57;4.35;;;3.00;;
34134;SDS011;20410;55.578;12.968;2023-06-22T11:31:23;4.47;;;2.95;;
34134;SDS011;20410;55.578;12.968;2023-06-22T11:33:48;4.55;;;3.28;;
34134;SDS011;20410;55.578;12.968;2023-06-22T11:36:14;5.47;;;3.20;;
34134;SDS011;20410;55.578;12.968;2023-06-22T11:38:40;7.35;;;3.65;;
34134;SDS011;20410;55.578;12.968;2023-06-22T11:41:06;7.18;;;3.40;;
34134;SDS011;20410;55.578;12.968;2023-06-22T11:43:33;3.95;;;3.03;;
34134;SDS011;20410;55.578;12.968;2023-06-22T11:45:59;4.88;;;2.97;;
34134;SDS011;20410;55.578;12.968;2023-06-22T11:48:26;4.57;;;2.90;;
34134;SDS011;20410;55.578;12.968;2023-06-22T11:50:51;6.55;;;3.20;;
34134;SDS011;20410;55.578;12.968;2023-06-22T11:53:17;5.93;;;3.17;;
34134;SDS011;20410;55.578;12.968;2023-06-22T11:55:43;5.25;;;3.03;;
34134;SDS011;20410;55.578;12.968;2023-06-22T11:58:09;5.47;;;3.50;;
34134;SDS011;20410;55.578;12.968;2023-06-22T12:00:35;5.10;;;3.45;;
34134;SDS011;20410;55.578;12.968;2023-06-22T12:03:00;5.95;;;3.00;;
34134;SDS011;20410;55.578;12.968;2023-06-22T12:05:26;5.30;;;3.47;;
34134;SDS011;20410;55.578;12.968;2023-06-22T12:07:55;5.00;;;3.35;;
34134;SDS011;20410;55.578;12.968;2023-06-22T12:10:25;7.75;;;3.40;;
34134;SDS011;20410;55.578;12.968;2023-06-22T12:12:52;5.18;;;3.05;;
34134;SDS011;20410;55.578;12.968;2023-06-22T12:15:18;6.03;;;3.33;;
34134;SDS011;20410;55.578;12.968;2023-06-22T12:17:44;5.05;;;3.15;;
34134;SDS011;20410;55.578;12.968;2023-06-22T12:20:09;4.85;;;3.03;;
34134;SDS011;20410;55.578;12.968;2023-06-22T12:22:35;5.55;;;3.00;;
34134;SDS011;20410;55.578;12.968;2023-06-22T12:25:04;5.47;;;3.15;;
34134;SDS011;20410;55.578;12.968;2023-06-22T12:27:29;5.95;;;3.50;;
34134;SDS011;20410;55.578;12.968;2023-06-22T12:29:55;5.82;;;3.13;;
34134;SDS011;20410;55.578;12.968;2023-06-22T12:32:21;3.83;;;3.00;;
34134;SDS011;20410;55.578;12.968;2023-06-22T12:34:47;4.35;;;3.08;;
34134;SDS011;20410;55.578;12.968;2023-06-22T12:37:12;5.22;;;2.85;;
34134;SDS011;20410;55.578;12.968;2023-06-22T12:39:40;7.00;;;2.60;;
34134;SDS011;20410;55.578;12.968;2023-06-22T12:42:06;3.88;;;2.75;;
34134;SDS011;20410;55.578;12.968;2023-06-22T12:44:33;7.47;;;3.30;;
34134;SDS011;20410;55.578;12.968;2023-06-22T12:47:02;3.83;;;3.03;;
34134;SDS011;20410;55.578;12.968;2023-06-22T12:49:28;6.25;;;3.15;;
34134;SDS011;20410;55.578;12.968;2023-06-22T12:51:54;3.95;;;2.72;;
34134;SDS011;20410;55.578;12.968;2023-06-22T12:54:19;4.32;;;3.03;;
34134;SDS011;20410;55.578;12.968;2023-06-22T12:56:45;3.88;;;2.90;;
34134;SDS011;20410;55.578;12.968;2023-06-22T12:59:11;4.68;;;3.20;;
34134;SDS011;20410;55.578;12.968;2023-06-22T13:01:36;6.30;;;3.13;;
34134;SDS011;20410;55.578;12.968;2023-06-22T13:04:02;5.40;;;2.70;;
34134;SDS011;20410;55.578;12.968;2023-06-22T13:06:28;4.22;;;3.00;;
34134;SDS011;20410;55.578;12.968;2023-06-22T13:08:53;3.25;;;2.28;;
34134;SDS011;20410;55.578;12.968;2023-06-22T13:11:19;6.35;;;2.58;;
34134;SDS011;20410;55.578;12.968;2023-06-22T13:13:45;4.20;;;2.67;;
34134;SDS011;20410;55.578;12.968;2023-06-22T13:16:11;4.38;;;2.90;;
34134;SDS011;20410;55.578;12.968;2023-06-22T13:18:37;3.95;;;2.80;;
34134;SDS011;20410;55.578;12.968;2023-06-22T13:21:03;3.88;;;2.67;;
34134;SDS011;20410;55.578;12.968;2023-06-22T13:23:29;5.28;;;3.20;;
34134;SDS011;20410;55.578;12.968;2023-06-22T13:25:55;2.65;;;2.40;;
34134;SDS011;20410;55.578;12.968;2023-06-22T13:28:21;4.10;;;3.08;;
34134;SDS011;20410;55.578;12.968;2023-06-22T13:30:46;5.35;;;2.78;;
34134;SDS011;20410;55.578;12.968;2023-06-22T13:33:15;3.70;;;2.80;;
34134;SDS011;20410;55.578;12.968;2023-06-22T13:35:41;4.70;;;2.90;;
34134;SDS011;20410;55.578;12.968;2023-06-22T13:38:10;5.05;;;3.00;;
34134;SDS011;20410;55.578;12.968;2023-06-22T13:40:36;4.25;;;2.90;;
34134;SDS011;20410;55.578;12.968;2023-06-22T13:43:05;4.28;;;3.25;;
34134;SDS011;20410;55.578;12.968;2023-06-22T13:45:30;4.20;;;3.28;;
34134;SDS011;20410;55.578;12.968;2023-06-22T13:47:56;5.25;;;3.38;;
34134;SDS011;20410;55.578;12.968;2023-06-22T13:50:22;4.07;;;2.80;;
34134;SDS011;20410;55.578;12.968;2023-06-22T13:52:47;3.70;;;3.00;;
34134;SDS011;20410;55.578;12.968;2023-06-22T13:55:13;4.18;;;2.70;;
34134;SDS011;20410;55.578;12.968;2023-06-22T13:57:39;4.47;;;2.80;;
34134;SDS011;20410;55.578;12.968;2023-06-22T14:00:06;3.90;;;2.92;;
34134;SDS011;20410;55.578;12.968;2023-06-22T14:02:33;3.75;;;2.80;;
34134;SDS011;20410;55.578;12.968;2023-06-22T14:04:58;4.70;;;3.08;;
34134;SDS011;20410;55.578;12.968;2023-06-22T14:07:24;7.28;;;3.50;;
34134;SDS011;20410;55.578;12.968;2023-06-22T14:09:50;4.05;;;3.17;;
34134;SDS011;20410;55.578;12.968;2023-06-22T14:12:15;4.53;;;3.17;;
34134;SDS011;20410;55.578;12.968;2023-06-22T14:14:43;5.75;;;3.20;;
34134;SDS011;20410;55.578;12.968;2023-06-22T14:17:09;4.57;;;3.22;;
34134;SDS011;20410;55.578;12.968;2023-06-22T14:19:35;4.18;;;2.90;;
34134;SDS011;20410;55.578;12.968;2023-06-22T14:22:00;6.32;;;3.30;;
34134;SDS011;20410;55.578;12.968;2023-06-22T14:24:26;4.43;;;3.10;;
34134;SDS011;20410;55.578;12.968;2023-06-22T14:26:52;7.28;;;3.15;;
34134;SDS011;20410;55.578;12.968;2023-06-22T14:29:17;5.85;;;3.08;;
34134;SDS011;20410;55.578;12.968;2023-06-22T14:31:46;3.88;;;3.22;;
34134;SDS011;20410;55.578;12.968;2023-06-22T14:34:13;5.40;;;3.17;;
34134;SDS011;20410;55.578;12.968;2023-06-22T14:36:39;3.95;;;3.00;;
34134;SDS011;20410;55.578;12.968;2023-06-22T14:39:04;5.03;;;2.72;;